Pomona, Missouri
Current Conditions -  °F | °C
As of 9:53 AM on Monday 22 Dec 2014 (Local Time) from KUNO Reporting Station
Light Rain Light Rain  
Wind Chill:   Ceiling: 200
Heat Index:   Visibility: 6mi
Dew Point:   Wind: 13mph
Humidity: 93%   Direction: 170°S
Pressure: 29.69"   Gusts: NA
Location:  36.87°N, 91.91°W
Report Text: KUNO 221553Z AUTO 17011KT 6SM -RA BR OVC002 07/06 A2969 RMK AO2 SLP055 P0001 T00720061
Loading
Personal Weather Stations






























Interactive Weather Map New forecast layout! Learn more

10-Day Weather Forecast

Advertisements
Track Severe Weather on mobile